createdAt,value
2022-10-17T00:00:51.819Z,1010.86
2022-10-17T00:01:51.832Z,1010.79
2022-10-17T00:02:51.780Z,1010.77
2022-10-17T00:03:51.770Z,1010.74
2022-10-17T00:04:51.761Z,1010.71
2022-10-17T00:05:51.749Z,1010.70
2022-10-17T00:06:51.779Z,1010.70
2022-10-17T00:07:51.839Z,1010.71
2022-10-17T00:08:51.710Z,1010.65
2022-10-17T00:09:51.761Z,1010.71
2022-10-17T00:10:51.700Z,1010.70
2022-10-17T00:11:51.680Z,1010.70
2022-10-17T00:12:51.675Z,1010.74
2022-10-17T00:13:51.664Z,1010.72
2022-10-17T00:14:51.670Z,1010.73
2022-10-17T00:15:51.640Z,1010.75
2022-10-17T00:16:51.651Z,1010.68
2022-10-17T00:17:51.620Z,1010.71
2022-10-17T00:18:51.608Z,1010.70
2022-10-17T00:19:51.603Z,1010.72
2022-10-17T00:20:51.582Z,1010.70
2022-10-17T00:21:51.609Z,1010.71
2022-10-17T00:22:51.667Z,1010.73
2022-10-17T00:23:51.611Z,1010.70
2022-10-17T00:24:51.549Z,1010.77
2022-10-17T00:25:51.541Z,1010.77
2022-10-17T00:26:51.619Z,1010.78
2022-10-17T00:27:51.571Z,1010.78
2022-10-17T00:28:51.583Z,1010.72
2022-10-17T00:29:51.491Z,1010.77
2022-10-17T00:30:51.480Z,1010.73
2022-10-17T00:32:51.479Z,1010.68
2022-10-17T00:33:51.451Z,1010.72
2022-10-17T00:34:51.429Z,1010.66
2022-10-17T00:35:51.430Z,1010.67
2022-10-17T00:36:51.411Z,1010.70
2022-10-17T00:37:51.409Z,1010.71
2022-10-17T00:38:51.529Z,1010.71
2022-10-17T00:39:51.380Z,1010.71
2022-10-17T00:40:51.423Z,1010.71
2022-10-17T00:41:51.393Z,1010.69
2022-10-17T00:42:51.350Z,1010.62
2022-10-17T00:43:51.340Z,1010.64
2022-10-17T00:44:51.330Z,1010.63
2022-10-17T00:45:51.319Z,1010.61
2022-10-17T00:47:02.010Z,1010.63
2022-10-17T00:47:51.349Z,1010.59
2022-10-17T00:48:51.289Z,1010.62
2022-10-17T00:49:51.319Z,1010.63
2022-10-17T00:50:51.260Z,1010.61
2022-10-17T00:51:51.259Z,1010.57
2022-10-17T00:52:51.240Z,1010.63
2022-10-17T00:53:51.260Z,1010.60
2022-10-17T00:54:51.230Z,1010.60
2022-10-17T00:55:51.885Z,1010.64
2022-10-17T00:56:51.199Z,1010.61
2022-10-17T00:57:51.189Z,1010.59
2022-10-17T00:58:51.200Z,1010.59
2022-10-17T00:59:51.170Z,1010.57
2022-10-17T01:00:51.162Z,1010.60
2022-10-17T01:01:51.151Z,1010.59
2022-10-17T01:02:51.130Z,1010.56
2022-10-17T01:03:51.362Z,1010.58
2022-10-17T01:04:56.610Z,1010.56
2022-10-17T01:05:51.760Z,1010.59
2022-10-17T01:06:51.100Z,1010.60
2022-10-17T01:07:51.079Z,1010.59
2022-10-17T01:08:51.076Z,1010.61
2022-10-17T01:09:51.069Z,1010.55
2022-10-17T01:10:51.080Z,1010.51
2022-10-17T01:11:51.050Z,1010.52
2022-10-17T01:12:51.033Z,1010.55
2022-10-17T01:13:51.020Z,1010.51
2022-10-17T01:14:51.030Z,1010.47
2022-10-17T01:15:51.007Z,1010.50
2022-10-17T01:16:50.980Z,1010.50
2022-10-17T01:17:51.750Z,1010.50
2022-10-17T01:18:50.961Z,1010.51
2022-10-17T01:19:51.021Z,1010.50
2022-10-17T01:20:50.951Z,1010.51
2022-10-17T01:21:50.931Z,1010.52
2022-10-17T01:22:50.953Z,1010.48
2022-10-17T01:23:50.910Z,1010.52
2022-10-17T01:24:50.904Z,1010.49
2022-10-17T01:25:50.891Z,1010.57
2022-10-17T01:26:50.881Z,1010.59
2022-10-17T01:27:51.539Z,1010.57
2022-10-17T01:28:50.887Z,1010.60
2022-10-17T01:29:50.841Z,1010.58
2022-10-17T01:30:58.562Z,1010.56
2022-10-17T01:31:50.820Z,1010.59
2022-10-17T01:32:50.810Z,1010.61
2022-10-17T01:33:50.804Z,1010.59
2022-10-17T01:34:50.789Z,1010.54
2022-10-17T01:35:50.780Z,1010.49
2022-10-17T01:36:50.821Z,1010.49
2022-10-17T01:37:50.759Z,1010.46
2022-10-17T01:38:50.740Z,1010.46
2022-10-17T01:39:50.740Z,1010.47
2022-10-17T01:40:50.730Z,1010.43
2022-10-17T01:41:50.717Z,1010.46
2022-10-17T01:42:50.730Z,1010.42
2022-10-17T01:43:50.723Z,1010.46
2022-10-17T01:44:50.683Z,1010.44
2022-10-17T01:45:51.352Z,1010.46
2022-10-17T01:46:50.710Z,1010.49
2022-10-17T01:47:50.650Z,1010.42
2022-10-17T01:48:50.641Z,1010.36
2022-10-17T01:49:50.667Z,1010.40
2022-10-17T01:50:50.621Z,1010.42
2022-10-17T01:51:50.611Z,1010.42
2022-10-17T01:52:50.591Z,1010.38
2022-10-17T01:53:50.594Z,1010.35
2022-10-17T01:54:50.578Z,1010.38
2022-10-17T01:55:53.833Z,1010.35
2022-10-17T01:56:50.552Z,1010.32
2022-10-17T01:57:50.552Z,1010.34
2022-10-17T01:58:50.531Z,1010.35
2022-10-17T01:59:50.520Z,1010.35
2022-10-17T02:00:50.525Z,1010.32
2022-10-17T02:01:50.601Z,1010.31
2022-10-17T02:02:50.483Z,1010.34
2022-10-17T02:03:50.533Z,1010.33
2022-10-17T02:04:50.527Z,1010.33
2022-10-17T02:05:50.461Z,1010.29
2022-10-17T02:06:50.441Z,1010.28
2022-10-17T02:07:50.443Z,1010.30
2022-10-17T02:08:50.429Z,1010.29
2022-10-17T02:09:50.441Z,1010.26
2022-10-17T02:10:50.430Z,1010.23
2022-10-17T02:11:50.411Z,1010.21
2022-10-17T02:12:50.383Z,1010.23
2022-10-17T02:13:50.401Z,1010.26
2022-10-17T02:14:50.410Z,1010.28
2022-10-17T02:15:50.374Z,1010.31
2022-10-17T02:16:50.341Z,1010.26
2022-10-17T02:17:50.330Z,1010.23
2022-10-17T02:18:50.311Z,1010.22
2022-10-17T02:19:50.330Z,1010.19
2022-10-17T02:20:50.300Z,1010.16
2022-10-17T02:21:50.290Z,1010.21
2022-10-17T02:22:50.271Z,1010.22
2022-10-17T02:23:50.263Z,1010.20
2022-10-17T02:24:50.281Z,1010.16
2022-10-17T02:25:50.241Z,1010.17
2022-10-17T02:26:50.232Z,1010.20
2022-10-17T02:27:50.221Z,1010.17
2022-10-17T02:28:50.246Z,1010.14
2022-10-17T02:29:50.202Z,1010.19
2022-10-17T02:30:50.211Z,1010.17
2022-10-17T02:31:50.179Z,1010.14
2022-10-17T02:32:50.448Z,1010.17
2022-10-17T02:33:50.160Z,1010.15
2022-10-17T02:34:50.141Z,1010.14
2022-10-17T02:35:50.180Z,1010.12
2022-10-17T02:36:50.121Z,1010.10
2022-10-17T02:37:50.140Z,1010.14
2022-10-17T02:38:50.120Z,1010.05
2022-10-17T02:39:50.092Z,1010.09
2022-10-17T02:40:50.080Z,1010.12
2022-10-17T02:41:50.101Z,1010.06
2022-10-17T02:42:50.059Z,1010.04
2022-10-17T02:43:50.043Z,1010.04
2022-10-17T02:44:50.091Z,1010.02
2022-10-17T02:45:50.774Z,1009.99
2022-10-17T02:46:50.010Z,1009.99
2022-10-17T02:47:50.051Z,1010.00
2022-10-17T02:48:50.000Z,1010.03
2022-10-17T02:49:50.001Z,1010.03
2022-10-17T02:50:49.961Z,1010.04
2022-10-17T02:51:50.081Z,1010.09
2022-10-17T02:52:49.950Z,1010.09
2022-10-17T02:53:49.932Z,1010.10
2022-10-17T02:54:49.920Z,1010.07
2022-10-17T02:55:49.918Z,1010.06
2022-10-17T02:56:49.900Z,1010.03
2022-10-17T02:57:49.920Z,1010.06
2022-10-17T02:58:49.880Z,1010.04
2022-10-17T02:59:49.879Z,1010.05
2022-10-17T03:00:49.961Z,1010.10
2022-10-17T03:01:49.850Z,1010.07
2022-10-17T03:02:49.840Z,1010.05
2022-10-17T03:03:49.880Z,1010.08
2022-10-17T03:04:49.820Z,1010.10
2022-10-17T03:05:49.800Z,1010.07
2022-10-17T03:06:49.800Z,1010.07
2022-10-17T03:07:49.780Z,1010.05
2022-10-17T03:08:49.790Z,1010.05
2022-10-17T03:09:49.793Z,1010.04
2022-10-17T03:10:49.752Z,1010.09
2022-10-17T03:11:49.738Z,1010.07
2022-10-17T03:12:49.731Z,1010.08
2022-10-17T03:13:49.740Z,1010.07
2022-10-17T03:14:49.711Z,1010.13
2022-10-17T03:15:49.701Z,1010.08
2022-10-17T03:16:49.691Z,1010.12
2022-10-17T03:17:49.673Z,1010.15
2022-10-17T03:18:50.278Z,1010.10
2022-10-17T03:19:49.710Z,1010.06
2022-10-17T03:20:49.641Z,1010.07
2022-10-17T03:21:49.631Z,1010.09
2022-10-17T03:22:49.622Z,1010.13
2022-10-17T03:23:49.610Z,1010.13
2022-10-17T03:24:49.601Z,1010.13
2022-10-17T03:25:49.640Z,1010.07
2022-10-17T03:26:49.592Z,1010.09
2022-10-17T03:27:49.561Z,1010.09
2022-10-17T03:28:52.076Z,1010.12
2022-10-17T03:29:49.551Z,1010.07
2022-10-17T03:30:49.541Z,1010.10
2022-10-17T03:31:49.561Z,1010.12
2022-10-17T03:32:49.510Z,1010.15
2022-10-17T03:33:49.499Z,1010.18
2022-10-17T03:34:49.530Z,1010.15
2022-10-17T03:36:49.481Z,1010.18
2022-10-17T03:37:49.460Z,1010.17
2022-10-17T03:38:49.450Z,1010.16
2022-10-17T03:39:49.431Z,1010.23
2022-10-17T03:40:49.451Z,1010.22
2022-10-17T03:41:49.412Z,1010.22
2022-10-17T03:42:49.400Z,1010.28
2022-10-17T03:43:49.390Z,1010.30
2022-10-17T03:44:49.381Z,1010.38
2022-10-17T03:45:49.401Z,1010.37
2022-10-17T03:46:49.362Z,1010.34
2022-10-17T03:47:49.352Z,1010.36
2022-10-17T03:48:49.343Z,1010.32
2022-10-17T03:49:49.329Z,1010.35
2022-10-17T03:50:49.370Z,1010.33
2022-10-17T03:51:49.312Z,1010.36
2022-10-17T03:52:49.301Z,1010.38
2022-10-17T03:53:49.460Z,1010.43
2022-10-17T03:54:49.271Z,1010.45
2022-10-17T03:55:49.261Z,1010.42
2022-10-17T03:56:49.267Z,1010.45
2022-10-17T03:57:56.273Z,1010.44
2022-10-17T03:58:49.272Z,1010.41
2022-10-17T03:59:49.251Z,1010.36
2022-10-17T04:00:49.232Z,1010.40
2022-10-17T04:01:49.214Z,1010.37
2022-10-17T04:02:49.210Z,1010.40
2022-10-17T04:03:49.182Z,1010.41
2022-10-17T04:04:49.188Z,1010.36
2022-10-17T04:05:49.833Z,1010.41
2022-10-17T04:06:49.164Z,1010.38
2022-10-17T04:07:49.145Z,1010.41
2022-10-17T04:08:49.147Z,1010.42
2022-10-17T04:09:49.122Z,1010.40
2022-10-17T04:10:49.152Z,1010.38
2022-10-17T04:11:49.102Z,1010.40
2022-10-17T04:12:49.092Z,1010.41
2022-10-17T04:13:49.074Z,1010.37
2022-10-17T04:14:49.072Z,1010.34
2022-10-17T04:15:49.050Z,1010.34
2022-10-17T04:16:49.071Z,1010.38
2022-10-17T04:17:49.032Z,1010.41
2022-10-17T04:18:49.021Z,1010.46
2022-10-17T04:19:49.010Z,1010.45
2022-10-17T04:20:49.001Z,1010.50
2022-10-17T04:21:49.020Z,1010.51
2022-10-17T04:22:48.981Z,1010.55
2022-10-17T04:23:48.970Z,1010.55
2022-10-17T04:24:49.001Z,1010.56
2022-10-17T04:25:48.963Z,1010.54
2022-10-17T04:26:48.939Z,1010.59
2022-10-17T04:27:48.941Z,1010.60
2022-10-17T04:28:48.920Z,1010.56
2022-10-17T04:29:48.905Z,1010.54
2022-10-17T04:30:49.962Z,1010.55
2022-10-17T04:31:48.881Z,1010.54
2022-10-17T04:32:48.872Z,1010.56
2022-10-17T04:33:48.863Z,1010.52
2022-10-17T04:34:48.880Z,1010.51
2022-10-17T04:35:48.830Z,1010.53
2022-10-17T04:36:48.822Z,1010.47
2022-10-17T04:37:48.808Z,1010.49
2022-10-17T04:38:48.800Z,1010.47
2022-10-17T04:39:48.791Z,1010.48
2022-10-17T04:40:48.818Z,1010.54
2022-10-17T04:41:48.767Z,1010.59
2022-10-17T04:42:48.781Z,1010.57
2022-10-17T04:43:51.176Z,1010.63
2022-10-17T04:44:48.740Z,1010.63
2022-10-17T04:45:48.729Z,1010.63
2022-10-17T04:46:48.771Z,1010.61
2022-10-17T04:47:48.700Z,1010.60
2022-10-17T04:48:48.730Z,1010.56
2022-10-17T04:49:48.696Z,1010.56
2022-10-17T04:50:48.671Z,1010.52
2022-10-17T04:51:48.689Z,1010.55
2022-10-17T04:52:48.649Z,1010.56
2022-10-17T04:53:48.700Z,1010.55
2022-10-17T04:54:48.628Z,1010.52
2022-10-17T04:55:48.640Z,1010.56
2022-10-17T04:56:48.625Z,1010.55
2022-10-17T04:57:48.600Z,1010.57
2022-10-17T04:58:48.591Z,1010.63
2022-10-17T04:59:48.612Z,1010.60
2022-10-17T05:00:48.576Z,1010.58
2022-10-17T05:01:48.551Z,1010.57
2022-10-17T05:02:48.549Z,1010.61
2022-10-17T05:03:48.541Z,1010.60
2022-10-17T05:04:48.521Z,1010.63
2022-10-17T05:05:48.543Z,1010.64
2022-10-17T05:06:48.511Z,1010.64
2022-10-17T05:07:48.501Z,1010.63
2022-10-17T05:08:48.482Z,1010.62
2022-10-17T05:09:48.489Z,1010.64
2022-10-17T05:10:48.533Z,1010.61
2022-10-17T05:11:48.592Z,1010.55
2022-10-17T05:12:48.440Z,1010.61
2022-10-17T05:13:48.471Z,1010.61
2022-10-17T05:14:48.451Z,1010.65
2022-10-17T05:15:48.399Z,1010.62
2022-10-17T05:16:48.392Z,1010.68
2022-10-17T05:17:48.381Z,1010.67
2022-10-17T05:18:51.921Z,1010.68
2022-10-17T05:19:48.381Z,1010.65
2022-10-17T05:20:48.350Z,1010.68
2022-10-17T05:21:48.333Z,1010.69
2022-10-17T05:22:48.329Z,1010.68
2022-10-17T05:23:48.380Z,1010.70
2022-10-17T05:24:48.310Z,1010.74
2022-10-17T05:25:48.299Z,1010.75
2022-10-17T05:26:48.289Z,1010.76
2022-10-17T05:27:48.309Z,1010.76
2022-10-17T05:28:48.347Z,1010.79
2022-10-17T05:29:48.250Z,1010.77
2022-10-17T05:30:48.269Z,1010.79
2022-10-17T05:31:48.280Z,1010.76
2022-10-17T05:32:48.240Z,1010.80
2022-10-17T05:33:48.211Z,1010.80
2022-10-17T05:34:48.190Z,1010.81
2022-10-17T05:35:48.187Z,1010.82
2022-10-17T05:36:48.216Z,1010.82
2022-10-17T05:37:48.150Z,1010.84
2022-10-17T05:38:48.160Z,1010.77
2022-10-17T05:39:51.327Z,1010.79
2022-10-17T05:40:48.177Z,1010.80
2022-10-17T05:41:48.127Z,1010.75
2022-10-17T05:42:48.112Z,1010.78
2022-10-17T05:43:48.110Z,1010.84
2022-10-17T05:44:48.089Z,1010.82
2022-10-17T05:45:48.090Z,1010.87
2022-10-17T05:46:48.090Z,1010.91
2022-10-17T05:47:48.060Z,1010.93
2022-10-17T05:48:48.051Z,1010.93
2022-10-17T05:49:52.088Z,1010.98
2022-10-17T05:50:48.054Z,1011.00
2022-10-17T05:51:48.010Z,1011.00
2022-10-17T05:52:48.041Z,1011.00
2022-10-17T05:53:47.993Z,1011.04
2022-10-17T05:54:47.989Z,1011.02
2022-10-17T05:55:47.978Z,1011.03
2022-10-17T05:56:48.012Z,1011.04
2022-10-17T05:57:47.940Z,1011.04
2022-10-17T05:58:50.981Z,1011.05
2022-10-17T05:59:47.991Z,1011.09
2022-10-17T06:00:47.930Z,1011.09
2022-10-17T06:01:47.979Z,1011.12
2022-10-17T06:02:47.903Z,1011.11
2022-10-17T06:03:47.975Z,1011.08
2022-10-17T06:04:47.880Z,1011.10
2022-10-17T06:05:47.861Z,1011.08
2022-10-17T06:06:47.852Z,1011.06
2022-10-17T06:07:47.992Z,1011.05
2022-10-17T06:08:47.831Z,1011.08
2022-10-17T06:09:47.813Z,1011.09
2022-10-17T06:10:47.821Z,1011.08
2022-10-17T06:11:47.801Z,1011.11
2022-10-17T06:12:47.791Z,1011.10
2022-10-17T06:13:47.811Z,1011.12
2022-10-17T06:14:47.770Z,1011.14
2022-10-17T06:15:47.751Z,1011.14
2022-10-17T06:16:47.742Z,1011.16
2022-10-17T06:17:47.741Z,1011.16
2022-10-17T06:19:47.710Z,1011.23
2022-10-17T06:20:47.709Z,1011.22
2022-10-17T06:21:47.729Z,1011.21
2022-10-17T06:22:47.679Z,1011.20
2022-10-17T06:23:47.668Z,1011.21
2022-10-17T06:24:47.693Z,1011.24
2022-10-17T06:25:47.681Z,1011.25
2022-10-17T06:26:47.780Z,1011.28
2022-10-17T06:27:47.658Z,1011.28
2022-10-17T06:28:47.671Z,1011.27
2022-10-17T06:29:47.601Z,1011.30
2022-10-17T06:30:47.590Z,1011.33
2022-10-17T06:31:47.571Z,1011.38
2022-10-17T06:32:47.601Z,1011.40
2022-10-17T06:33:47.557Z,1011.46
2022-10-17T06:34:47.550Z,1011.43
2022-10-17T06:35:47.531Z,1011.47
2022-10-17T06:36:47.574Z,1011.46
2022-10-17T06:37:47.623Z,1011.46
2022-10-17T06:38:47.520Z,1011.51
2022-10-17T06:39:47.522Z,1011.45
2022-10-17T06:40:47.491Z,1011.48
2022-10-17T06:41:47.502Z,1011.46
2022-10-17T06:42:47.542Z,1011.46
2022-10-17T06:43:47.464Z,1011.46
2022-10-17T06:44:47.441Z,1011.47
2022-10-17T06:45:47.551Z,1011.48
2022-10-17T06:46:47.421Z,1011.49
2022-10-17T06:47:47.645Z,1011.49
2022-10-17T06:48:47.391Z,1011.50
2022-10-17T06:49:47.391Z,1011.53
2022-10-17T06:50:47.369Z,1011.49
2022-10-17T06:51:47.363Z,1011.53
2022-10-17T06:52:47.381Z,1011.49
2022-10-17T06:53:47.343Z,1011.43
2022-10-17T06:54:47.351Z,1011.48
2022-10-17T06:55:47.331Z,1011.47
2022-10-17T06:56:47.336Z,1011.47
2022-10-17T06:57:47.342Z,1011.34
2022-10-17T06:58:47.297Z,1011.42
2022-10-17T06:59:47.282Z,1011.41
2022-10-17T07:00:47.324Z,1011.43
2022-10-17T07:01:47.344Z,1011.45
2022-10-17T07:02:47.241Z,1011.45
2022-10-17T07:03:47.282Z,1011.42
2022-10-17T07:04:47.211Z,1011.47
2022-10-17T07:05:47.223Z,1011.51
2022-10-17T07:06:47.262Z,1011.53
2022-10-17T07:07:49.674Z,1011.55
2022-10-17T07:08:47.204Z,1011.60
2022-10-17T07:09:47.170Z,1011.62
2022-10-17T07:10:47.158Z,1011.60
2022-10-17T07:11:47.172Z,1011.65
2022-10-17T07:12:47.133Z,1011.67
2022-10-17T07:13:47.179Z,1011.65
2022-10-17T07:14:47.102Z,1011.66
2022-10-17T07:15:47.127Z,1011.65
2022-10-17T07:16:47.100Z,1011.65
2022-10-17T07:17:47.082Z,1011.62
2022-10-17T07:18:47.072Z,1011.66
2022-10-17T07:19:48.795Z,1011.67
2022-10-17T07:20:47.062Z,1011.69
2022-10-17T07:21:47.040Z,1011.73
2022-10-17T07:22:47.024Z,1011.74
2022-10-17T07:23:47.020Z,1011.77
2022-10-17T07:24:47.138Z,1011.78
2022-10-17T07:25:47.013Z,1011.72
2022-10-17T07:26:46.981Z,1011.82
2022-10-17T07:27:46.972Z,1011.77
2022-10-17T07:28:47.012Z,1011.75
2022-10-17T07:29:46.952Z,1011.73
2022-10-17T07:30:50.705Z,1011.73
2022-10-17T07:31:47.970Z,1011.68
2022-10-17T07:32:46.910Z,1011.73
2022-10-17T07:34:46.890Z,1011.73
2022-10-17T07:35:46.893Z,1011.74
2022-10-17T07:36:46.882Z,1011.71
2022-10-17T07:37:46.905Z,1011.76
2022-10-17T07:38:46.883Z,1011.73
2022-10-17T07:39:46.850Z,1011.77
2022-10-17T07:40:46.821Z,1011.76
2022-10-17T07:41:46.839Z,1011.79
2022-10-17T07:42:46.911Z,1011.76
2022-10-17T07:43:46.804Z,1011.76
2022-10-17T07:44:48.252Z,1011.74
2022-10-17T07:45:46.781Z,1011.73
2022-10-17T07:46:46.771Z,1011.69
2022-10-17T07:47:46.782Z,1011.72
2022-10-17T07:48:46.799Z,1011.68
2022-10-17T07:49:46.741Z,1011.65
2022-10-17T07:50:46.729Z,1011.71
2022-10-17T07:52:46.768Z,1011.71
2022-10-17T07:53:48.825Z,1011.72
2022-10-17T07:54:46.701Z,1011.73
2022-10-17T07:55:46.712Z,1011.73
2022-10-17T07:56:46.663Z,1011.79
2022-10-17T07:57:46.642Z,1011.77
2022-10-17T07:58:49.878Z,1011.81
2022-10-17T07:59:46.623Z,1011.83
2022-10-17T08:00:46.705Z,1011.82
2022-10-17T08:01:46.632Z,1011.80
2022-10-17T08:02:46.591Z,1011.77
2022-10-17T08:03:46.628Z,1011.79
2022-10-17T08:04:46.568Z,1011.85
2022-10-17T08:05:46.571Z,1011.83
2022-10-17T08:06:46.547Z,1011.82
2022-10-17T08:07:46.544Z,1011.88
2022-10-17T08:08:46.812Z,1011.78
2022-10-17T08:09:46.512Z,1011.81
2022-10-17T08:10:46.533Z,1011.82
2022-10-17T08:11:46.499Z,1011.84
2022-10-17T08:12:46.479Z,1011.79
2022-10-17T08:13:46.504Z,1011.76
2022-10-17T08:14:46.492Z,1011.78
2022-10-17T08:15:46.509Z,1011.85
2022-10-17T08:16:46.463Z,1011.78
2022-10-17T08:17:46.422Z,1011.77
2022-10-17T08:18:46.433Z,1011.77
2022-10-17T08:19:46.406Z,1011.77
2022-10-17T08:20:46.423Z,1011.78
2022-10-17T08:21:46.393Z,1011.72
2022-10-17T08:22:46.459Z,1011.74
2022-10-17T08:23:46.382Z,1011.84
2022-10-17T08:24:46.362Z,1011.83
2022-10-17T08:25:46.342Z,1011.88
2022-10-17T08:26:49.568Z,1011.83
2022-10-17T08:27:47.420Z,1011.88
2022-10-17T08:28:46.359Z,1011.88
2022-10-17T08:29:46.293Z,1011.90
2022-10-17T08:30:46.291Z,1011.92
2022-10-17T08:31:47.882Z,1011.98
2022-10-17T08:32:46.299Z,1011.94
2022-10-17T08:33:46.324Z,1011.94
2022-10-17T08:34:46.249Z,1011.95
2022-10-17T08:35:46.240Z,1011.96
2022-10-17T08:36:46.222Z,1012.01
2022-10-17T08:37:46.223Z,1012.00
2022-10-17T08:38:51.639Z,1011.99
2022-10-17T08:39:50.510Z,1012.00
2022-10-17T08:40:46.183Z,1011.97
2022-10-17T08:41:46.174Z,1012.04
2022-10-17T08:42:46.154Z,1012.04
2022-10-17T08:43:46.162Z,1012.11
2022-10-17T08:44:46.147Z,1012.12
2022-10-17T08:45:46.152Z,1012.17
2022-10-17T08:46:46.113Z,1012.12
2022-10-17T08:47:51.913Z,1012.06
2022-10-17T08:48:46.715Z,1012.10
2022-10-17T08:49:46.086Z,1012.06
2022-10-17T08:50:46.071Z,1012.10
2022-10-17T08:51:46.125Z,1012.13
2022-10-17T08:52:46.052Z,1012.14
2022-10-17T08:53:46.043Z,1012.13
2022-10-17T08:54:46.042Z,1012.19
2022-10-17T08:55:46.042Z,1012.15
2022-10-17T08:56:49.562Z,1012.14
2022-10-17T08:57:46.044Z,1012.20
2022-10-17T08:58:45.992Z,1012.17
2022-10-17T08:59:45.976Z,1012.15
2022-10-17T09:00:45.956Z,1012.19
2022-10-17T09:01:45.957Z,1012.14
2022-10-17T09:02:45.997Z,1012.14
2022-10-17T09:03:46.033Z,1012.17
2022-10-17T09:04:45.921Z,1012.15
2022-10-17T09:05:45.904Z,1012.18
2022-10-17T09:06:45.894Z,1012.14
2022-10-17T09:07:45.883Z,1012.18
2022-10-17T09:08:45.874Z,1012.13
2022-10-17T09:09:45.893Z,1012.19
2022-10-17T09:10:45.845Z,1012.16
2022-10-17T09:11:45.845Z,1012.09
2022-10-17T09:12:45.824Z,1012.16
2022-10-17T09:13:45.876Z,1012.14
2022-10-17T09:14:45.803Z,1012.16
2022-10-17T09:15:47.612Z,1012.25
2022-10-17T09:16:45.785Z,1012.25
2022-10-17T09:17:45.783Z,1012.28
2022-10-17T09:18:45.790Z,1012.30
2022-10-17T09:19:45.774Z,1012.35
2022-10-17T09:20:45.733Z,1012.37
2022-10-17T09:21:45.794Z,1012.35
2022-10-17T09:22:45.787Z,1012.39
2022-10-17T09:23:45.714Z,1012.38
2022-10-17T09:24:46.363Z,1012.37
2022-10-17T09:25:45.718Z,1012.41
2022-10-17T09:26:45.674Z,1012.45
2022-10-17T09:27:45.671Z,1012.46
2022-10-17T09:28:45.693Z,1012.49
2022-10-17T09:29:45.653Z,1012.51
2022-10-17T09:30:46.580Z,1012.52
2022-10-17T09:31:45.662Z,1012.54
2022-10-17T09:32:45.655Z,1012.54
2022-10-17T09:34:00.735Z,1012.54
2022-10-17T09:34:46.584Z,1012.54
2022-10-17T09:35:45.588Z,1012.56
2022-10-17T09:36:45.623Z,1012.57
2022-10-17T09:37:45.561Z,1012.54
2022-10-17T09:38:45.536Z,1012.58
2022-10-17T09:39:45.585Z,1012.55
2022-10-17T09:40:45.546Z,1012.57
2022-10-17T09:41:47.292Z,1012.61
2022-10-17T09:42:45.512Z,1012.66
2022-10-17T09:43:45.513Z,1012.66
2022-10-17T09:44:45.498Z,1012.69
2022-10-17T09:45:45.508Z,1012.67
2022-10-17T09:46:45.455Z,1012.72
2022-10-17T09:47:45.453Z,1012.72
2022-10-17T09:48:46.945Z,1012.71
2022-10-17T09:49:45.444Z,1012.72
2022-10-17T09:50:50.604Z,1012.78
2022-10-17T09:51:46.415Z,1012.79
2022-10-17T09:52:45.385Z,1012.84
2022-10-17T09:53:45.376Z,1012.85
2022-10-17T09:54:45.363Z,1012.85
2022-10-17T09:55:45.357Z,1012.91
2022-10-17T09:56:45.386Z,1012.91
2022-10-17T09:58:46.748Z,1012.93
2022-10-17T09:59:46.730Z,1012.97
2022-10-17T10:00:46.804Z,1012.95
2022-10-17T10:01:53.411Z,1012.93
2022-10-17T10:02:46.743Z,1012.95
2022-10-17T10:03:46.680Z,1012.97
2022-10-17T10:05:03.335Z,1012.97
2022-10-17T10:05:47.660Z,1013.03
2022-10-17T10:06:46.641Z,1013.03
2022-10-17T10:07:46.649Z,1013.01
2022-10-17T10:08:46.668Z,1013.01
2022-10-17T10:09:46.612Z,1013.03
2022-10-17T10:10:48.861Z,1012.99
2022-10-17T10:11:46.617Z,1013.10
2022-10-17T10:12:46.578Z,1013.10
2022-10-17T10:13:46.572Z,1013.09
2022-10-17T10:14:47.440Z,1013.13
2022-10-17T10:15:46.552Z,1013.17
2022-10-17T10:16:46.534Z,1013.20
2022-10-17T10:17:46.531Z,1013.21
2022-10-17T10:18:48.730Z,1013.23
2022-10-17T10:19:46.502Z,1013.17
2022-10-17T10:20:46.493Z,1013.17
2022-10-17T10:21:47.162Z,1013.22
2022-10-17T10:22:46.460Z,1013.24
2022-10-17T10:23:46.461Z,1013.24
2022-10-17T10:24:46.469Z,1013.31
2022-10-17T10:25:46.460Z,1013.31
2022-10-17T10:26:46.420Z,1013.36
2022-10-17T10:27:46.421Z,1013.33
2022-10-17T10:28:46.452Z,1013.42
2022-10-17T10:29:46.391Z,1013.46
2022-10-17T10:30:46.371Z,1013.48
2022-10-17T10:31:46.391Z,1013.45
2022-10-17T10:32:46.361Z,1013.45
2022-10-17T10:33:49.572Z,1013.47
2022-10-17T10:34:46.331Z,1013.49
2022-10-17T10:35:46.512Z,1013.44
2022-10-17T10:36:46.332Z,1013.50
2022-10-17T10:37:46.313Z,1013.49
2022-10-17T10:38:46.292Z,1013.54
2022-10-17T10:39:46.552Z,1013.57
2022-10-17T10:40:46.271Z,1013.53
2022-10-17T10:41:46.271Z,1013.47
2022-10-17T10:42:46.252Z,1013.44
2022-10-17T10:43:46.242Z,1013.45
2022-10-17T10:44:46.232Z,1013.35
2022-10-17T10:45:48.732Z,1013.44
2022-10-17T10:46:46.203Z,1013.48
2022-10-17T10:47:48.604Z,1013.49
2022-10-17T10:48:46.433Z,1013.46
2022-10-17T10:49:46.175Z,1013.36
2022-10-17T10:50:46.179Z,1013.42
2022-10-17T10:51:46.163Z,1013.44
2022-10-17T10:52:46.162Z,1013.43
2022-10-17T10:53:46.179Z,1013.40
2022-10-17T10:54:46.135Z,1013.40
2022-10-17T10:55:46.116Z,1013.41
2022-10-17T10:56:48.716Z,1013.51
2022-10-17T10:57:47.104Z,1013.49
2022-10-17T10:58:46.073Z,1013.47
2022-10-17T10:59:46.084Z,1013.48
2022-10-17T11:00:46.079Z,1013.57
2022-10-17T11:01:46.045Z,1013.57
2022-10-17T11:02:46.052Z,1013.68
2022-10-17T11:03:46.025Z,1013.70
2022-10-17T11:04:46.032Z,1013.70
2022-10-17T11:05:46.005Z,1013.72
2022-10-17T11:06:46.023Z,1013.73
2022-10-17T11:07:45.985Z,1013.79
2022-10-17T11:08:45.964Z,1013.83
2022-10-17T11:09:45.954Z,1013.86
2022-10-17T11:10:45.949Z,1013.85
2022-10-17T11:11:45.941Z,1013.86
2022-10-17T11:12:45.958Z,1013.90
2022-10-17T11:13:47.777Z,1013.94
2022-10-17T11:14:45.895Z,1014.03
2022-10-17T11:15:45.897Z,1014.00
2022-10-17T11:16:45.874Z,1013.97
2022-10-17T11:17:45.960Z,1014.01
2022-10-17T11:18:45.993Z,1014.02
2022-10-17T11:19:45.956Z,1014.03
2022-10-17T11:20:45.825Z,1014.03
2022-10-17T11:21:45.833Z,1013.98
2022-10-17T11:22:45.836Z,1014.02
2022-10-17T11:23:45.915Z,1013.97
2022-10-17T11:24:45.784Z,1014.05
2022-10-17T11:25:45.816Z,1014.08
2022-10-17T11:26:45.765Z,1014.09
2022-10-17T11:27:45.765Z,1014.10
2022-10-17T11:28:45.787Z,1014.07
2022-10-17T11:29:45.743Z,1014.00
2022-10-17T11:30:45.732Z,1014.01
2022-10-17T11:31:45.746Z,1013.99
2022-10-17T11:32:45.751Z,1014.03
2022-10-17T11:33:45.726Z,1014.03
2022-10-17T11:34:45.689Z,1014.07
2022-10-17T11:35:45.684Z,1014.05
2022-10-17T11:36:45.675Z,1013.99
2022-10-17T11:37:48.385Z,1014.00
2022-10-17T11:38:45.667Z,1014.00
2022-10-17T11:40:45.646Z,1013.90
2022-10-17T11:41:45.606Z,1013.87
2022-10-17T11:42:45.596Z,1013.87
2022-10-17T11:43:45.657Z,1013.85
2022-10-17T11:44:45.587Z,1013.80
2022-10-17T11:45:45.603Z,1013.71
2022-10-17T11:46:45.565Z,1013.61
2022-10-17T11:47:45.546Z,1013.54
2022-10-17T11:48:45.526Z,1013.62
2022-10-17T11:49:47.288Z,1013.66
2022-10-17T11:52:02.847Z,1013.71
2022-10-17T11:53:02.213Z,1013.72
2022-10-17T11:53:46.475Z,1013.71
2022-10-17T11:54:45.456Z,1013.70
2022-10-17T11:55:45.476Z,1013.74
2022-10-17T11:56:45.436Z,1013.75
2022-10-17T11:57:45.436Z,1013.78
2022-10-17T11:58:45.420Z,1013.78
2022-10-17T11:59:45.408Z,1013.81
2022-10-17T12:00:48.868Z,1013.83
2022-10-17T12:01:51.407Z,1013.77
2022-10-17T12:02:45.386Z,1013.82
2022-10-17T12:03:45.368Z,1013.75
2022-10-17T12:04:49.375Z,1013.75
2022-10-17T12:05:45.345Z,1013.76
2022-10-17T12:06:45.367Z,1013.83
2022-10-17T12:07:45.330Z,1013.88
2022-10-17T12:08:45.307Z,1013.92
2022-10-17T12:09:45.297Z,1013.93
2022-10-17T12:10:45.287Z,1013.91
2022-10-17T12:11:45.328Z,1013.93
2022-10-17T12:12:45.266Z,1013.99
2022-10-17T12:13:45.260Z,1014.00